Time;durP1;ratioP1;P1;durP2;ratioP2;P2;SDS_P1;SDS_P2;PMS_P1;PMS_P2;Temp;Humidity;BMP_temperature;BMP_pressure;BME280_temperature;BME280_humidity;BME280_pressure;Samples;Min_cycle;Max_cycle;Signal;HPM_P1;HPM_P2
2021/11/25 00:01:54;;;;;;;26.25;14.55;;;7.70;82.50;;;;;;4973874;28;20038;-82
2021/11/25 00:04:20;;;;;;;25.70;13.43;;;7.70;82.40;;;;;;4974818;28;20027;-82
2021/11/25 00:06:46;;;;;;;22.95;12.98;;;7.70;82.30;;;;;;4973504;28;20022;-83
2021/11/25 00:09:11;;;;;;;25.63;13.38;;;7.60;82.10;;;;;;4973521;28;20046;-83
2021/11/25 00:11:37;;;;;;;24.90;13.88;;;7.60;82.30;;;;;;4973645;28;20026;-84
2021/11/25 00:14:03;;;;;;;26.20;13.43;;;7.60;82.20;;;;;;4973215;28;20126;-83
2021/11/25 00:16:28;;;;;;;25.33;14.48;;;7.60;82.20;;;;;;4974505;28;20023;-83
2021/11/25 00:18:54;;;;;;;26.17;13.82;;;7.50;82.00;;;;;;4972276;28;20881;-83
2021/11/25 00:21:20;;;;;;;24.85;13.02;;;7.50;82.00;;;;;;4973769;28;20035;-83
2021/11/25 00:23:45;;;;;;;22.50;13.05;;;7.50;82.00;;;;;;4973071;28;20019;-83
2021/11/25 00:26:12;;;;;;;23.80;12.88;;;7.40;81.90;;;;;;4973539;28;20074;-83
2021/11/25 00:28:38;;;;;;;24.52;13.00;;;7.30;82.00;;;;;;4973507;28;20027;-82
2021/11/25 00:31:05;;;;;;;22.48;11.90;;;7.30;82.20;;;;;;4972278;28;20441;-82
2021/11/25 00:33:31;;;;;;;21.85;12.25;;;7.30;82.80;;;;;;4972457;28;20035;-82
2021/11/25 00:35:57;;;;;;;21.70;12.65;;;7.30;82.30;;;;;;4972969;28;20055;-83
2021/11/25 00:38:23;;;;;;;23.38;14.27;;;7.20;82.40;;;;;;4970003;28;20073;-83
2021/11/25 00:40:48;;;;;;;23.35;13.68;;;7.20;82.50;;;;;;4971408;28;20437;-83
2021/11/25 00:43:14;;;;;;;24.15;13.75;;;7.30;82.40;;;;;;4971974;28;20033;-83
2021/11/25 00:45:39;;;;;;;22.23;12.60;;;7.30;82.30;;;;;;4973685;28;20092;-83
2021/11/25 00:48:05;;;;;;;24.17;13.45;;;7.30;82.40;;;;;;4972777;28;20034;-83
2021/11/25 00:50:31;;;;;;;22.95;12.23;;;7.30;82.30;;;;;;4973015;28;20029;-82
2021/11/25 00:52:57;;;;;;;24.42;13.13;;;7.30;82.20;;;;;;4971364;28;20046;-82
2021/11/25 00:55:22;;;;;;;22.30;12.25;;;7.40;82.10;;;;;;4970939;28;20018;-82
2021/11/25 00:57:48;;;;;;;27.33;14.60;;;7.40;82.00;;;;;;4970789;28;20108;-82
2021/11/25 01:00:18;;;;;;;25.05;14.27;;;7.40;82.00;;;;;;4971816;28;20039;-83
2021/11/25 01:02:44;;;;;;;27.02;14.57;;;7.30;82.00;;;;;;4971333;28;20109;-83
2021/11/25 01:05:11;;;;;;;24.38;13.48;;;7.40;82.00;;;;;;4970099;28;20037;-83
2021/11/25 01:07:37;;;;;;;23.50;13.13;;;7.40;81.90;;;;;;4984119;28;20383;-82
2021/11/25 01:10:05;;;;;;;26.58;13.60;;;7.40;81.90;;;;;;4970944;28;20029;-83
2021/11/25 01:12:31;;;;;;;23.85;13.20;;;7.40;82.00;;;;;;4970715;28;20038;-83
2021/11/25 01:14:58;;;;;;;23.13;12.82;;;7.40;81.90;;;;;;4985752;28;20015;-82
2021/11/25 01:17:23;;;;;;;24.70;13.10;;;7.30;81.90;;;;;;4971712;28;20029;-84
2021/11/25 01:19:49;;;;;;;23.13;13.63;;;7.30;81.90;;;;;;4967501;28;23012;-83
2021/11/25 01:22:15;;;;;;;25.33;13.65;;;7.30;82.10;;;;;;4959488;28;20114;-83
2021/11/25 01:24:40;;;;;;;24.83;13.48;;;7.30;82.20;;;;;;4972712;28;20049;-83
2021/11/25 01:27:06;;;;;;;22.45;12.75;;;7.30;82.20;;;;;;4972517;28;20393;-83
2021/11/25 01:29:32;;;;;;;28.55;15.20;;;7.30;82.10;;;;;;4971802;28;20382;-82
2021/11/25 01:31:57;;;;;;;24.10;13.38;;;7.30;82.10;;;;;;4970784;28;20125;-83
2021/11/25 01:34:23;;;;;;;26.33;13.23;;;7.30;82.20;;;;;;4972304;28;20034;-83
2021/11/25 01:36:49;;;;;;;26.80;14.65;;;7.30;82.10;;;;;;4971050;28;20015;-83
2021/11/25 01:39:16;;;;;;;27.10;14.13;;;7.30;82.20;;;;;;4969649;28;20070;-84
2021/11/25 01:41:42;;;;;;;26.23;14.10;;;7.30;82.10;;;;;;4970782;28;20608;-84
2021/11/25 01:44:08;;;;;;;28.20;14.85;;;7.30;82.10;;;;;;4970138;28;20110;-85
2021/11/25 01:46:33;;;;;;;32.92;17.23;;;7.30;82.10;;;;;;4971105;28;20033;-85
2021/11/25 01:48:59;;;;;;;29.23;15.80;;;7.20;82.10;;;;;;4969968;28;20258;-83
2021/11/25 01:51:25;;;;;;;27.65;12.88;;;7.20;82.20;;;;;;4970249;28;20085;-82
2021/11/25 01:53:51;;;;;;;25.40;13.20;;;7.30;82.20;;;;;;4985337;28;19922;-83
2021/11/25 01:56:17;;;;;;;26.50;14.30;;;7.30;82.20;;;;;;4967862;28;20034;-83
2021/11/25 01:58:45;;;;;;;37.45;19.00;;;7.30;82.20;;;;;;4969877;28;20035;-84
2021/11/25 02:01:12;;;;;;;31.45;16.15;;;7.20;82.20;;;;;;4970572;28;20433;-83
2021/11/25 02:03:38;;;;;;;29.77;14.50;;;7.20;82.40;;;;;;4969310;28;20027;-83
2021/11/25 02:06:05;;;;;;;29.20;14.90;;;7.20;82.50;;;;;;4969574;28;20031;-83
2021/11/25 02:08:31;;;;;;;35.00;17.73;;;7.20;82.50;;;;;;4968198;28;20046;-83
2021/11/25 02:10:58;;;;;;;33.60;17.65;;;7.10;82.50;;;;;;4970338;28;20082;-82
2021/11/25 02:13:25;;;;;;;29.58;15.43;;;7.10;82.50;;;;;;4970753;28;20424;-82
2021/11/25 02:15:51;;;;;;;25.70;13.10;;;7.10;82.60;;;;;;4971665;28;20023;-82
2021/11/25 02:18:19;;;;;;;32.25;18.13;;;7.10;82.60;;;;;;4970365;28;20482;-82
2021/11/25 02:20:50;;;;;;;31.70;17.45;;;7.10;82.50;;;;;;4971908;28;20023;-81
2021/11/25 02:23:17;;;;;;;29.10;14.70;;;7.10;82.60;;;;;;4971679;28;20239;-82
2021/11/25 02:25:44;;;;;;;24.45;13.32;;;7.10;82.70;;;;;;4972202;28;20030;-81
2021/11/25 02:28:11;;;;;;;28.00;14.38;;;7.10;82.60;;;;;;4971141;28;20030;-82
2021/11/25 02:30:37;;;;;;;26.70;14.85;;;7.20;82.70;;;;;;4970398;28;20022;-84
2021/11/25 02:33:03;;;;;;;29.98;16.55;;;7.10;82.60;;;;;;4969780;28;20093;-83
2021/11/25 02:35:32;;;;;;;33.83;18.55;;;7.10;82.60;;;;;;4971789;28;20022;-83
2021/11/25 02:37:58;;;;;;;30.98;16.67;;;7.10;82.70;;;;;;4969947;28;20481;-82
2021/11/25 02:40:30;;;;;;;32.75;16.67;;;7.00;82.80;;;;;;4972141;28;20019;-82
2021/11/25 02:42:58;;;;;;;29.92;16.02;;;7.00;82.80;;;;;;4971313;28;20046;-83
2021/11/25 02:45:24;;;;;;;30.33;15.13;;;7.00;82.80;;;;;;4970608;28;20395;-82
2021/11/25 02:47:51;;;;;;;28.15;15.93;;;7.00;82.70;;;;;;4970817;28;20030;-82
2021/11/25 02:50:19;;;;;;;23.83;12.63;;;7.00;82.80;;;;;;4971333;28;20444;-82
2021/11/25 02:52:45;;;;;;;28.92;14.70;;;7.00;82.80;;;;;;4971029;28;20261;-82
2021/11/25 02:55:12;;;;;;;27.70;14.18;;;7.00;82.70;;;;;;4971321;28;20019;-82
2021/11/25 02:57:39;;;;;;;24.33;12.82;;;7.00;82.70;;;;;;4970665;28;20026;-83
2021/11/25 03:00:13;;;;;;;24.38;13.50;;;7.10;82.70;;;;;;4970769;28;20037;-82
2021/11/25 03:02:38;;;;;;;23.58;13.25;;;7.10;82.70;;;;;;4970373;28;20026;-82
2021/11/25 03:05:06;;;;;;;23.33;13.45;;;7.00;82.60;;;;;;4970333;28;20206;-82
2021/11/25 03:07:32;;;;;;;24.73;14.07;;;7.10;82.70;;;;;;4969385;28;20428;-83
2021/11/25 03:09:58;;;;;;;26.35;15.13;;;7.10;82.60;;;;;;4970328;28;20093;-83
2021/11/25 03:12:23;;;;;;;29.20;16.20;;;7.10;82.60;;;;;;4970466;28;20498;-83
2021/11/25 03:14:49;;;;;;;28.90;17.02;;;7.00;82.70;;;;;;4969291;28;20130;-83
2021/11/25 03:17:14;;;;;;;31.15;16.45;;;7.00;82.80;;;;;;4969831;28;20050;-83
2021/11/25 03:19:40;;;;;;;27.00;15.07;;;6.90;82.80;;;;;;4970761;28;20042;-82
2021/11/25 03:22:05;;;;;;;25.58;14.73;;;6.90;82.90;;;;;;4969998;28;20027;-82
2021/11/25 03:24:31;;;;;;;23.92;14.43;;;6.90;82.80;;;;;;4963475;28;20445;-82
2021/11/25 03:26:56;;;;;;;30.17;17.48;;;6.90;82.80;;;;;;4971077;28;20462;-83
2021/11/25 03:29:22;;;;;;;26.33;15.27;;;6.90;82.60;;;;;;4970436;28;20042;-84
2021/11/25 03:31:47;;;;;;;31.17;17.88;;;6.90;82.70;;;;;;4970797;28;20050;-82
2021/11/25 03:34:13;;;;;;;27.20;16.23;;;6.90;82.60;;;;;;4970445;28;20054;-83
2021/11/25 03:36:38;;;;;;;27.63;17.75;;;6.80;82.50;;;;;;4970957;28;20023;-83
2021/11/25 03:39:04;;;;;;;29.20;18.20;;;6.80;82.50;;;;;;4969560;28;20031;-84
2021/11/25 03:41:30;;;;;;;27.00;15.20;;;6.70;82.50;;;;;;4970008;28;20019;-84
2021/11/25 03:43:58;;;;;;;28.35;16.60;;;6.70;82.50;;;;;;4970443;28;20018;-85
2021/11/25 03:46:23;;;;;;;30.88;18.13;;;6.80;82.50;;;;;;4971237;28;20033;-83
2021/11/25 03:48:49;;;;;;;30.25;18.08;;;6.80;82.80;;;;;;4970384;28;20114;-83
2021/11/25 03:51:15;;;;;;;29.40;17.15;;;6.70;82.40;;;;;;4970273;28;20038;-81
2021/11/25 03:53:43;;;;;;;27.88;17.33;;;6.70;82.40;;;;;;4970597;28;20035;-81
2021/11/25 03:56:09;;;;;;;27.52;16.90;;;6.70;82.40;;;;;;4970221;28;20039;-84
2021/11/25 03:58:35;;;;;;;26.25;15.80;;;6.70;82.30;;;;;;4969222;28;20062;-84
2021/11/25 04:01:00;;;;;;;24.65;14.27;;;6.70;82.40;;;;;;4969661;28;20034;-84
2021/11/25 04:03:26;;;;;;;20.35;13.45;;;6.80;82.40;;;;;;4969763;28;20113;-82
2021/11/25 04:05:52;;;;;;;21.02;13.68;;;6.80;82.20;;;;;;4970155;28;20039;-83
2021/11/25 04:08:18;;;;;;;18.08;12.00;;;6.80;82.20;;;;;;4969792;28;20027;-83
2021/11/25 04:10:44;;;;;;;24.67;15.13;;;6.80;82.20;;;;;;4961443;28;20065;-83
2021/11/25 04:13:10;;;;;;;20.20;12.48;;;6.80;82.20;;;;;;4968559;28;20039;-83
2021/11/25 04:15:35;;;;;;;23.20;14.48;;;6.80;82.20;;;;;;4967154;28;20033;-82
2021/11/25 04:18:01;;;;;;;22.45;13.43;;;6.90;82.20;;;;;;4967063;28;20030;-82
2021/11/25 04:20:27;;;;;;;19.17;11.80;;;6.90;82.20;;;;;;4968435;28;20267;-82
2021/11/25 04:22:52;;;;;;;24.88;16.25;;;6.90;82.10;;;;;;4968681;28;20027;-83
2021/11/25 04:25:18;;;;;;;23.17;14.70;;;6.80;82.00;;;;;;4968914;28;20400;-82
2021/11/25 04:27:44;;;;;;;19.67;13.10;;;6.80;82.10;;;;;;4968623;28;20486;-82
2021/11/25 04:35:33;;;;;;;24.40;16.10;;;6.90;81.90;;;;;;4968412;28;20053;-82
2021/11/25 04:38:03;;;;;;;21.25;14.63;;;6.80;81.60;;;;;;4969749;28;20030;-82
2021/11/25 04:40:34;;;;;;;23.48;15.82;;;6.80;81.60;;;;;;4969246;28;20026;-82
2021/11/25 04:43:00;;;;;;;25.27;16.10;;;6.80;81.50;;;;;;4973081;28;20027;-83
2021/11/25 04:45:25;;;;;;;20.45;13.95;;;6.80;81.40;;;;;;4973433;28;20437;-81
2021/11/25 04:47:51;;;;;;;21.50;14.10;;;6.80;81.40;;;;;;4973847;28;20030;-81
2021/11/25 04:50:16;;;;;;;16.13;10.77;;;6.80;81.40;;;;;;4972723;28;20030;-81
2021/11/25 04:52:42;;;;;;;19.15;12.15;;;6.90;81.40;;;;;;4973113;28;20049;-82
2021/11/25 04:55:08;;;;;;;19.10;12.75;;;6.90;81.30;;;;;;4972254;28;20023;-81
2021/11/25 04:57:34;;;;;;;20.13;13.07;;;6.90;81.30;;;;;;4971780;28;20428;-81
2021/11/25 04:59:59;;;;;;;21.05;14.13;;;6.90;81.20;;;;;;4972848;28;20026;-81
2021/11/25 05:02:25;;;;;;;18.45;13.27;;;6.90;81.10;;;;;;4972824;28;20034;-82
2021/11/25 05:04:50;;;;;;;20.05;13.25;;;6.90;81.00;;;;;;4972497;28;20429;-81
2021/11/25 05:07:16;;;;;;;21.20;13.88;;;6.90;81.10;;;;;;4971715;28;20544;-81
2021/11/25 05:09:41;;;;;;;21.30;13.68;;;6.90;81.20;;;;;;4971901;28;20031;-81
2021/11/25 05:12:07;;;;;;;18.92;13.27;;;6.90;81.10;;;;;;4971621;28;20030;-81
2021/11/25 05:14:33;;;;;;;20.02;14.02;;;6.90;81.10;;;;;;4972909;28;20085;-81
2021/11/25 05:16:58;;;;;;;16.55;11.48;;;6.90;81.00;;;;;;4972956;28;20031;-82
2021/11/25 05:19:24;;;;;;;17.42;12.57;;;6.80;80.90;;;;;;4972262;28;20043;-82
2021/11/25 05:21:49;;;;;;;18.95;13.13;;;6.90;80.90;;;;;;4971031;28;20051;-82
2021/11/25 05:24:18;;;;;;;18.50;13.10;;;6.90;80.90;;;;;;4971673;28;20062;-82
2021/11/25 05:26:43;;;;;;;20.58;14.27;;;6.90;80.90;;;;;;4972855;28;20116;-82
2021/11/25 05:29:09;;;;;;;17.65;11.85;;;6.90;80.90;;;;;;4967741;28;20027;-84
2021/11/25 05:31:34;;;;;;;20.63;13.73;;;6.90;80.90;;;;;;4966462;28;20063;-83
2021/11/25 05:34:00;;;;;;;21.35;14.40;;;6.90;80.90;;;;;;4972125;28;20031;-81
2021/11/25 05:36:25;;;;;;;20.33;13.20;;;7.00;80.80;;;;;;4972383;28;20063;-81
2021/11/25 05:38:51;;;;;;;19.58;12.93;;;6.90;80.60;;;;;;4970996;28;20035;-81
2021/11/25 05:41:17;;;;;;;23.05;16.55;;;6.90;80.60;;;;;;4971018;28;20031;-81
2021/11/25 05:43:42;;;;;;;25.65;17.88;;;6.80;80.50;;;;;;4971370;28;20146;-81
2021/11/25 05:46:08;;;;;;;24.85;16.83;;;6.80;80.50;;;;;;4972483;28;20039;-82
2021/11/25 05:48:33;;;;;;;24.48;15.98;;;6.70;80.60;;;;;;4971059;28;20532;-82
2021/11/25 05:50:59;;;;;;;21.95;15.50;;;6.70;80.70;;;;;;4971791;28;20042;-82
2021/11/25 05:53:25;;;;;;;28.45;19.45;;;6.70;80.70;;;;;;4971955;28;20038;-82
2021/11/25 05:55:51;;;;;;;25.88;18.60;;;6.70;80.60;;;;;;4975271;28;20077;-82
2021/11/25 05:58:16;;;;;;;25.27;16.95;;;6.60;80.70;;;;;;4971720;28;20113;-81
2021/11/25 06:00:43;;;;;;;29.55;20.30;;;6.60;80.80;;;;;;4972305;28;20015;-82
2021/11/25 06:03:08;;;;;;;28.52;19.90;;;6.60;80.80;;;;;;4971297;28;20049;-82
2021/11/25 06:05:34;;;;;;;27.75;19.15;;;6.50;80.80;;;;;;4971959;28;20461;-81
2021/11/25 06:08:02;;;;;;;28.13;19.02;;;6.50;81.00;;;;;;4970888;28;20616;-80
2021/11/25 06:10:29;;;;;;;30.15;20.67;;;6.50;81.00;;;;;;4970481;28;20023;-80
2021/11/25 06:12:56;;;;;;;27.83;19.05;;;6.50;81.10;;;;;;4970824;28;20046;-81
2021/11/25 06:15:22;;;;;;;28.45;19.13;;;6.40;81.20;;;;;;4971684;28;20378;-81
2021/11/25 06:17:48;;;;;;;29.85;20.00;;;6.40;81.40;;;;;;4971119;28;20392;-80
2021/11/25 06:20:16;;;;;;;25.52;17.45;;;6.40;81.40;;;;;;4971272;28;20027;-81
2021/11/25 06:22:44;;;;;;;26.92;18.25;;;6.40;81.40;;;;;;4971374;28;20545;-82
2021/11/25 06:25:12;;;;;;;26.70;18.33;;;6.40;81.40;;;;;;4970366;28;20015;-82
2021/11/25 06:27:38;;;;;;;24.67;17.77;;;6.40;81.40;;;;;;4971059;28;20057;-82
2021/11/25 06:30:06;;;;;;;24.45;16.98;;;6.30;81.80;;;;;;4970521;28;20117;-81
2021/11/25 06:32:33;;;;;;;25.65;18.85;;;6.30;81.60;;;;;;4969735;28;20034;-82
2021/11/25 06:34:59;;;;;;;29.38;22.30;;;6.30;81.60;;;;;;4971210;28;20460;-81
2021/11/25 06:37:24;;;;;;;31.88;23.10;;;6.30;81.60;;;;;;4969558;28;20062;-81
2021/11/25 06:39:50;;;;;;;28.88;20.88;;;6.20;81.60;;;;;;4970970;28;20126;-83
2021/11/25 06:42:15;;;;;;;23.90;17.50;;;6.20;81.60;;;;;;4969945;28;20029;-83
2021/11/25 06:44:41;;;;;;;24.35;17.67;;;6.20;81.70;;;;;;4971215;28;20433;-81
2021/11/25 06:47:06;;;;;;;25.13;16.92;;;6.20;81.70;;;;;;4971296;28;20038;-82
2021/11/25 06:49:32;;;;;;;21.35;14.95;;;6.20;81.70;;;;;;4970581;28;20295;-79
2021/11/25 06:51:58;;;;;;;20.20;13.77;;;6.20;81.70;;;;;;4970746;28;20070;-80
2021/11/25 06:54:23;;;;;;;18.48;12.77;;;6.20;81.70;;;;;;4971219;28;20035;-80
2021/11/25 06:56:49;;;;;;;22.45;16.92;;;6.30;81.70;;;;;;4966053;28;20441;-80
2021/11/25 06:59:15;;;;;;;24.40;16.27;;;6.30;81.60;;;;;;4962084;28;20034;-80
2021/11/25 07:01:41;;;;;;;22.27;15.70;;;6.30;81.50;;;;;;4979957;28;20178;-80
2021/11/25 07:04:06;;;;;;;20.35;14.75;;;6.30;81.60;;;;;;4984441;28;20099;-80
2021/11/25 07:06:33;;;;;;;19.83;14.27;;;6.30;81.70;;;;;;4983192;28;20029;-80
2021/11/25 07:08:59;;;;;;;22.83;16.60;;;6.30;81.60;;;;;;4980672;28;20026;-80
2021/11/25 07:11:26;;;;;;;21.65;15.82;;;6.30;81.60;;;;;;4983173;28;20031;-81
2021/11/25 07:13:52;;;;;;;22.83;15.77;;;6.40;81.60;;;;;;4982973;28;20045;-80
2021/11/25 07:16:18;;;;;;;20.98;14.77;;;6.40;81.60;;;;;;4985467;28;20030;-79
2021/11/25 07:18:43;;;;;;;20.45;14.77;;;6.40;81.50;;;;;;4970205;28;20031;-80
2021/11/25 07:21:08;;;;;;;17.95;12.90;;;6.40;81.40;;;;;;4976371;28;20126;-80
2021/11/25 07:23:34;;;;;;;19.15;13.55;;;6.40;81.50;;;;;;4969203;28;20178;-84
2021/11/25 07:26:00;;;;;;;17.02;12.15;;;6.50;81.40;;;;;;4969722;28;20042;-84
2021/11/25 07:28:25;;;;;;;19.90;14.23;;;6.40;81.40;;;;;;4971861;28;20030;-84
2021/11/25 07:30:51;;;;;;;19.23;13.55;;;6.50;81.40;;;;;;4999055;28;20030;-80
2021/11/25 07:33:16;;;;;;;19.75;14.80;;;6.50;81.40;;;;;;4979965;28;20034;-79
2021/11/25 07:35:46;;;;;;;23.77;16.58;;;6.50;81.50;;;;;;4977142;28;20034;-79
2021/11/25 07:38:13;;;;;;;19.45;14.35;;;6.40;81.20;;;;;;4970004;28;20019;-79
2021/11/25 07:40:39;;;;;;;21.85;15.95;;;6.40;81.20;;;;;;4974113;28;20029;-79
2021/11/25 07:43:06;;;;;;;21.63;15.57;;;6.40;81.20;;;;;;4978041;28;20034;-79
2021/11/25 07:45:33;;;;;;;20.55;14.63;;;6.40;81.10;;;;;;4980915;28;20022;-79
2021/11/25 07:47:59;;;;;;;21.73;15.63;;;6.40;81.10;;;;;;4972776;28;20062;-79
2021/11/25 07:50:27;;;;;;;22.95;16.25;;;6.40;81.10;;;;;;4973623;28;20478;-80
2021/11/25 07:52:54;;;;;;;22.55;15.65;;;6.40;81.00;;;;;;4975058;28;20141;-80
2021/11/25 07:55:20;;;;;;;21.58;15.75;;;6.40;81.00;;;;;;4967138;28;20054;-79
2021/11/25 07:57:46;;;;;;;26.60;18.80;;;6.30;81.00;;;;;;4969064;28;20030;-80
2021/11/25 08:00:14;;;;;;;24.42;16.25;;;6.30;81.00;;;;;;4967024;28;20046;-78
2021/11/25 08:02:40;;;;;;;18.85;14.02;;;6.30;81.10;;;;;;4966719;28;20034;-80
2021/11/25 08:05:06;;;;;;;23.40;17.02;;;6.40;81.20;;;;;;4965930;28;20026;-80
2021/11/25 08:07:32;;;;;;;20.55;15.50;;;6.30;81.10;;;;;;4967113;28;20094;-80
2021/11/25 08:09:57;;;;;;;20.42;14.65;;;6.30;81.20;;;;;;4967649;28;20426;-80
2021/11/25 08:12:23;;;;;;;22.48;16.02;;;6.30;81.20;;;;;;4970066;28;20054;-80
2021/11/25 08:14:48;;;;;;;20.58;14.07;;;6.30;81.20;;;;;;4970602;28;20030;-79
2021/11/25 08:17:14;;;;;;;22.10;16.58;;;6.40;81.20;;;;;;4970274;28;20141;-79
2021/11/25 08:19:42;;;;;;;23.55;17.50;;;6.40;81.20;;;;;;4970635;28;20136;-79
2021/11/25 08:22:08;;;;;;;28.23;20.45;;;6.40;81.10;;;;;;4972033;28;20031;-79
2021/11/25 08:24:33;;;;;;;23.52;17.83;;;6.30;81.00;;;;;;4967876;28;20501;-78
2021/11/25 08:27:00;;;;;;;24.75;17.48;;;6.30;81.10;;;;;;4972960;28;20027;-80
2021/11/25 08:29:26;;;;;;;26.10;18.05;;;6.30;81.20;;;;;;4970975;28;20066;-79
2021/11/25 08:31:52;;;;;;;27.05;19.52;;;6.30;81.20;;;;;;4971800;28;20053;-80
2021/11/25 08:34:17;;;;;;;25.23;19.40;;;6.30;81.10;;;;;;4970930;28;20038;-80
2021/11/25 08:36:43;;;;;;;26.58;19.65;;;6.30;81.10;;;;;;4972801;28;20030;-80
2021/11/25 08:39:09;;;;;;;27.20;19.13;;;6.30;81.00;;;;;;4972713;28;20026;-80
2021/11/25 08:41:35;;;;;;;24.52;18.10;;;6.30;81.00;;;;;;4980162;28;20536;-79
2021/11/25 08:44:00;;;;;;;28.90;20.50;;;6.30;81.00;;;;;;4973681;28;20019;-79
2021/11/25 08:46:26;;;;;;;23.95;17.58;;;6.30;80.90;;;;;;4968949;28;20411;-79
2021/11/25 08:48:52;;;;;;;25.65;18.15;;;6.30;81.00;;;;;;4971259;28;20070;-79
2021/11/25 08:51:17;;;;;;;28.00;20.88;;;6.30;81.00;;;;;;4974058;28;20023;-81
2021/11/25 08:53:43;;;;;;;28.38;20.85;;;6.30;81.00;;;;;;4973713;28;20433;-80
2021/11/25 08:56:10;;;;;;;31.02;22.08;;;6.30;81.00;;;;;;4973621;28;20054;-80
2021/11/25 08:58:36;;;;;;;31.98;23.25;;;6.30;81.10;;;;;;4971980;28;20090;-80
2021/11/25 09:01:02;;;;;;;28.63;20.67;;;6.30;81.10;;;;;;4972145;28;20109;-81
2021/11/25 09:03:30;;;;;;;29.23;19.63;;;6.20;81.20;;;;;;4976511;28;20034;-81
2021/11/25 09:05:57;;;;;;;24.15;17.13;;;6.30;81.30;;;;;;4985189;28;20049;-81
2021/11/25 09:08:22;;;;;;;21.95;15.63;;;6.30;81.30;;;;;;4985737;28;20062;-81
2021/11/25 09:10:48;;;;;;;31.55;22.80;;;6.30;81.30;;;;;;4970417;28;20512;-81
2021/11/25 09:13:14;;;;;;;23.70;17.33;;;6.30;81.30;;;;;;4967608;28;20097;-80
2021/11/25 09:15:40;;;;;;;24.52;17.60;;;6.40;81.40;;;;;;4969572;28;20267;-80
2021/11/25 09:18:09;;;;;;;24.10;17.02;;;6.50;81.40;;;;;;4970450;28;20097;-80
2021/11/25 09:20:39;;;;;;;27.73;19.60;;;6.50;81.40;;;;;;4969781;28;20070;-80
2021/11/25 09:23:11;;;;;;;27.00;19.35;;;6.50;81.30;;;;;;4970225;28;20058;-80
2021/11/25 09:25:41;;;;;;;30.88;22.77;;;6.50;81.20;;;;;;4965264;28;20022;-80
2021/11/25 09:28:07;;;;;;;28.67;20.08;;;6.50;81.00;;;;;;4969577;28;20027;-80
2021/11/25 09:30:33;;;;;;;27.40;19.30;;;6.50;81.10;;;;;;4971300;28;20059;-80
2021/11/25 09:32:58;;;;;;;25.85;18.38;;;6.60;81.10;;;;;;4968994;28;20027;-80
2021/11/25 09:35:24;;;;;;;26.98;18.00;;;6.60;81.00;;;;;;4972138;28;20133;-81
2021/11/25 09:37:51;;;;;;;27.50;20.08;;;6.70;81.10;;;;;;4972327;28;20291;-80
2021/11/25 09:40:24;;;;;;;27.75;19.35;;;6.70;81.00;;;;;;4972440;28;20030;-80
2021/11/25 09:42:52;;;;;;;21.33;16.27;;;6.60;80.80;;;;;;4972107;28;20134;-80
2021/11/25 09:45:22;;;;;;;23.77;17.80;;;6.60;80.90;;;;;;4972016;28;20102;-79
2021/11/25 09:47:53;;;;;;;24.13;17.25;;;6.60;81.00;;;;;;4971223;28;20482;-80
2021/11/25 09:50:20;;;;;;;25.85;17.52;;;6.60;81.00;;;;;;4969483;28;20042;-81
2021/11/25 09:52:50;;;;;;;27.42;19.70;;;6.60;81.00;;;;;;4971756;28;20035;-81
2021/11/25 09:55:15;;;;;;;18.45;13.95;;;6.70;81.20;;;;;;4970156;28;20034;-81
2021/11/25 09:57:41;;;;;;;18.83;13.13;;;6.70;81.30;;;;;;4971121;28;20084;-81
2021/11/25 10:00:10;;;;;;;21.45;14.68;;;6.60;81.30;;;;;;4972578;28;20085;-81
2021/11/25 10:02:36;;;;;;;21.45;16.00;;;6.70;81.50;;;;;;4966316;28;20115;-81
2021/11/25 10:05:02;;;;;;;18.35;13.63;;;6.70;81.60;;;;;;4971811;28;20176;-81
2021/11/25 10:07:31;;;;;;;20.10;15.07;;;6.70;81.50;;;;;;4970067;28;20250;-81
2021/11/25 10:09:57;;;;;;;21.80;16.17;;;6.70;81.60;;;;;;4967957;28;20041;-81
2021/11/25 10:12:38;;;;;;;21.35;14.98;;;6.70;81.70;;;;;;4965096;28;20023;-81
2021/11/25 10:15:37;;;;;;;20.42;14.25;;;6.70;81.80;;;;;;4967448;28;20045;-81
2021/11/25 10:18:14;;;;;;;24.15;17.65;;;6.70;81.90;;;;;;4950015;28;20150;-81
2021/11/25 10:20:43;;;;;;;21.23;15.13;;;6.70;81.90;;;;;;4969547;28;20061;-80
2021/11/25 10:23:19;;;;;;;28.52;19.98;;;6.70;82.00;;;;;;4969141;28;20490;-81
2021/11/25 10:25:48;;;;;;;23.13;16.73;;;6.60;82.10;;;;;;4973608;28;20026;-79
2021/11/25 10:28:44;;;;;;;21.20;15.30;;;6.60;82.30;;;;;;4959736;28;20038;-80
2021/11/25 10:31:19;;;;;;;20.70;14.70;;;6.60;82.40;;;;;;4967522;28;20031;-80
2021/11/25 10:33:55;;;;;;;23.25;17.67;;;6.70;82.40;;;;;;4968755;28;20481;-81
2021/11/25 10:39:35;;;;;;;21.08;15.48;;;6.60;82.60;;;;;;4970074;28;20031;-81
2021/11/25 10:42:06;;;;;;;17.33;12.18;;;6.70;82.60;;;;;;4970065;28;20026;-81
2021/11/25 10:44:37;;;;;;;15.73;11.20;;;6.70;82.60;;;;;;4969835;28;20026;-81
2021/11/25 10:47:18;;;;;;;21.00;13.88;;;6.70;82.70;;;;;;4970112;28;20089;-81
2021/11/25 10:49:49;;;;;;;21.77;14.98;;;6.70;82.70;;;;;;4964963;28;20030;-81
2021/11/25 10:52:16;;;;;;;17.42;13.27;;;6.80;82.70;;;;;;4986068;28;20035;-80
2021/11/25 10:54:44;;;;;;;20.80;13.95;;;6.80;82.80;;;;;;4969968;28;20540;-81
2021/11/25 10:57:10;;;;;;;23.45;16.40;;;6.80;82.80;;;;;;4968058;28;20490;-81
2021/11/25 10:59:42;;;;;;;22.00;15.50;;;6.80;82.90;;;;;;4968150;28;20047;-81
2021/11/25 11:02:20;;;;;;;20.88;13.75;;;6.80;83.00;;;;;;4967289;28;20065;-81
2021/11/25 11:04:48;;;;;;;20.90;15.02;;;6.80;83.10;;;;;;4965655;28;20505;-82
2021/11/25 11:07:26;;;;;;;23.30;15.63;;;6.90;83.10;;;;;;4962953;28;20031;-81
2021/11/25 11:09:53;;;;;;;19.13;12.73;;;6.90;83.20;;;;;;4966626;28;20097;-82
2021/11/25 11:12:48;;;;;;;22.38;14.77;;;6.90;83.20;;;;;;4967820;28;20018;-80
2021/11/25 11:20:47;;;;;;;26.08;17.27;;;7.00;83.20;;;;;;4964620;28;20552;-81
2021/11/25 11:23:14;;;;;;;23.05;15.90;;;7.00;83.90;;;;;;4964945;28;20050;-81
2021/11/25 11:25:42;;;;;;;19.33;12.95;;;7.10;83.40;;;;;;4969882;28;20106;-81
2021/11/25 11:28:09;;;;;;;27.85;17.42;;;7.00;83.30;;;;;;4969607;28;20022;-81
2021/11/25 11:30:36;;;;;;;21.20;13.82;;;7.10;83.40;;;;;;4969527;28;20055;-82
2021/11/25 11:33:06;;;;;;;23.95;15.27;;;7.10;83.50;;;;;;4970080;28;20046;-81
2021/11/25 11:35:33;;;;;;;23.05;14.65;;;7.20;83.40;;;;;;4969256;28;20121;-82
2021/11/25 11:38:02;;;;;;;22.90;15.27;;;7.20;83.40;;;;;;4970293;28;20485;-80
2021/11/25 11:40:29;;;;;;;22.98;15.13;;;7.20;83.40;;;;;;4970464;28;20019;-81
2021/11/25 11:42:59;;;;;;;25.77;16.70;;;7.30;83.40;;;;;;4968647;28;20689;-81
2021/11/25 11:45:26;;;;;;;22.58;14.00;;;7.30;83.40;;;;;;4968230;28;20019;-81
2021/11/25 11:47:54;;;;;;;23.83;15.85;;;7.30;83.50;;;;;;4971974;28;20035;-81
2021/11/25 11:50:33;;;;;;;23.55;15.35;;;7.30;83.50;;;;;;4983541;28;20663;-81
2021/11/25 11:53:02;;;;;;;25.08;15.27;;;7.40;84.20;;;;;;4969724;28;20056;-81
2021/11/25 11:55:36;;;;;;;24.50;15.90;;;7.40;83.50;;;;;;4970380;28;20409;-80
2021/11/25 11:58:39;;;;;;;23.55;15.38;;;7.40;83.60;;;;;;4980187;28;20034;-81
2021/11/25 12:01:14;;;;;;;26.67;16.08;;;7.50;83.60;;;;;;4970657;28;20536;-84
2021/11/25 12:03:51;;;;;;;23.70;15.32;;;7.60;83.70;;;;;;4983164;28;20039;-84
2021/11/25 12:06:40;;;;;;;25.98;16.13;;;7.60;83.70;;;;;;4971699;28;20027;-84
2021/11/25 12:09:14;;;;;;;22.85;15.23;;;7.60;83.80;;;;;;4971073;28;20062;-83
2021/11/25 12:11:44;;;;;;;21.08;12.98;;;7.60;83.70;;;;;;4971046;28;20482;-84
2021/11/25 12:14:18;;;;;;;23.80;14.85;;;7.70;83.70;;;;;;4974713;28;20509;-83
2021/11/25 12:17:09;;;;;;;17.40;10.93;;;7.80;83.70;;;;;;4979146;28;20031;-90
2021/11/25 12:19:40;;;;;;;22.77;14.25;;;7.80;83.60;;;;;;4968036;28;20030;-87
2021/11/25 12:22:11;;;;;;;25.98;16.27;;;7.90;83.60;;;;;;4973987;28;20030;-87
2021/11/25 12:25:00;;;;;;;24.50;15.55;;;7.90;83.60;;;;;;4972261;28;20042;-87
2021/11/25 12:27:32;;;;;;;15.93;9.65;;;7.90;83.70;;;;;;4972142;28;20474;-89
2021/11/25 12:29:59;;;;;;;27.88;16.90;;;8.00;83.70;;;;;;4957613;28;20026;-88
2021/11/25 12:32:48;;;;;;;26.55;16.30;;;8.00;83.70;;;;;;4968434;28;20038;-86
2021/11/25 12:35:31;;;;;;;25.50;15.98;;;8.00;83.70;;;;;;4969837;28;20575;-85
2021/11/25 12:38:01;;;;;;;20.75;12.10;;;8.00;83.70;;;;;;4969463;28;20033;-82
2021/11/25 12:40:26;;;;;;;27.20;16.30;;;8.10;83.80;;;;;;4971256;28;20409;-82
2021/11/25 12:43:08;;;;;;;29.70;18.67;;;8.10;83.80;;;;;;4969625;28;20027;-83
2021/11/25 12:45:38;;;;;;;22.33;14.10;;;8.10;83.80;;;;;;4970416;28;20050;-84
2021/11/25 12:48:13;;;;;;;34.75;21.92;;;8.10;83.90;;;;;;4969842;28;20425;-83
2021/11/25 12:50:50;;;;;;;36.22;21.77;;;8.10;83.90;;;;;;4972656;28;20089;-85
2021/11/25 12:53:33;;;;;;;35.20;21.83;;;8.10;84.10;;;;;;4970190;28;20130;-87